Bitflower — SBJE — position and weather

sailwx.info

Track history (hours):
 
Tides and Currents Weather Stations Pressure Air Temp Water Temp Dewpoint Dewpoint Depression Visibility Wind Speed Wind Dir Waves Ship Positions

Bitflower

Last reported at 2017-Mar-28 23:32 UTC. Time now 2017-Mar-28 23:35 UTC.
Position N 43°32' W 001°35'.

; draft 6.7 m.

Type: Ship. MMSI: 266009000.

Date/timePositionNaut miles runAvg speedWind from/ knotsBaromVisibWave heightAir tempDewpointWater temp
2017-Mar-28 23:32N 43°32' W 001°35'1 0.1
2017-Mar-28 04:33N 43°33' W 001°36'6 6.2
2017-Mar-28 03:33N 43°37' W 001°43'23111.0
2017-Mar-27 06:30N 46°58' W 004°26'9 9.8
2017-Mar-27 05:33N 47°06' W 004°33'1010.1
2017-Mar-27 04:32N 47°15' W 004°40'38 9.4
2017-Mar-27 00:33N 47°47' W 005°08'27 9.0
2017-Mar-26 21:33N 48°10' W 005°30'144 8.3
2017-Mar-26 04:14N 49°57' W 003°02'4411.6
2017-Mar-26 00:26N 50°10' W 001°56'1213.4
2017-Mar-25 23:33N 50°13' W 001°39'5110.2
2017-Mar-25 18:33N 50°27' W 000°22'9 9.3
2017-Mar-25 17:33N 50°29' W 000°08'1010.3
2017-Mar-25 16:33N 50°32' E 000°07'1111.4
2017-Mar-25 15:33N 50°35' E 000°25'1211.9
2017-Mar-25 14:34N 50°40' E 000°42'1212.2
2017-Mar-25 13:34N 50°46' E 000°58'1311.4
2017-Mar-25 12:25N 50°54' E 001°15'910.1
2017-Mar-25 11:33N 50°60' E 001°25'9 9.3
2017-Mar-25 10:34N 51°07' E 001°35'9 9.3
2017-Mar-25 09:33N 51°13' E 001°45'1010.5
2017-Mar-25 08:33N 51°22' E 001°55'1211.7
2017-Mar-25 07:33N 51°31' E 002°06'4212.1
2017-Mar-25 04:06N 52°01' E 002°52'2011.0
2017-Mar-25 02:20N 52°03' E 003°24'810.3
2017-Mar-25 01:32N 52°04' E 003°37'10 9.9
2017-Mar-25 00:33N 52°03' E 003°53'1211.5
2017-Mar-24 23:33N 51°58' E 004°09'6 5.5
2017-Mar-24 22:28N 51°53' E 004°16'0 0.0
2017-Mar-24 21:28N 51°53' E 004°16'0 0.0
2017-Mar-24 20:28N 51°53' E 004°16'0 0.0
2017-Mar-24 18:16N 51°53' E 004°16'0 0.0
2017-Mar-24 17:04N 51°53' E 004°16'0 0.0
2017-Mar-24 16:28N 51°53' E 004°16'0 0.0
2017-Mar-24 14:16N 51°53' E 004°16'0 0.0
2017-Mar-24 13:28N 51°53' E 004°16'0 0.0
2017-Mar-24 11:28N 51°53' E 004°16'0 0.0
2017-Mar-24 09:28N 51°53' E 004°16'0 0.0
2017-Mar-24 08:16N 51°53' E 004°16'0 0.1
2017-Mar-24 07:33N 51°53' E 004°16'4 3.8
2017-Mar-24 06:33N 51°56' E 004°12'10 9.9
2017-Mar-24 05:33N 51°60' E 003°57'9 9.1
2017-Mar-24 04:31N 51°56' E 003°44'0 0.1
2017-Mar-24 03:29N 51°56' E 003°43'0 0.0
2017-Mar-24 02:32N 51°56' E 003°43'0 0.0
2017-Mar-24 01:23N 51°56' E 003°43'0 0.0
2017-Mar-24 00:23N 51°56' E 003°43'0 0.0
2017-Mar-23 23:05N 51°56' E 003°43'0 0.0
2017-Mar-23 22:29N 51°56' E 003°43'1 1.2
2017-Mar-23 21:33N 51°57' E 003°42'1111.2
2017-Mar-23 20:33N 51°55' E 003°24'1312.6
2017-Mar-23 19:32N 51°51' E 003°04'1611.6
2017-Mar-23 18:07N 51°47' E 002°39'710.5
2017-Mar-23 17:29N 51°42' E 002°31'1010.6
2017-Mar-23 16:32N 51°34' E 002°21'1010.6
2017-Mar-23 15:33N 51°26' E 002°10'1010.4
2017-Mar-23 14:33N 51°16' E 002°05'1010.4
2017-Mar-23 13:33N 51°10' E 001°52'1110.9
2017-Mar-23 12:33N 51°02' E 001°39'7010.8
2017-Mar-23 06:06N 50°22' E 000°10'1012.1
2017-Mar-23 05:16N 50°19' W 000°06'3712.6
2017-Mar-23 02:20N 50°09' W 001°02'912.1
2017-Mar-23 01:33N 50°07' W 001°16'1211.5
2017-Mar-23 00:33N 50°04' W 001°33'1111.0
2017-Mar-22 23:33N 50°01' W 001°50'6510.7
2017-Mar-22 17:29N 49°50' W 003°30'26410.1
2017-Mar-21 15:21N 54°05' W 005°21'1013.2
2017-Mar-21 14:33N 54°16' W 005°19'1313.0
2017-Mar-21 13:33N 54°29' W 005°20'1414.2
2017-Mar-21 12:34N 54°42' W 005°28'1312.7
2017-Mar-21 11:33N 54°40' W 005°50'4 0.1
2017-Mar-20 06:05N 54°37' W 005°53'1 2.7
2017-Mar-20 05:33N 54°38' W 005°52'1010.0
2017-Mar-20 04:33N 54°43' W 005°37'8 8.3
2017-Mar-20 03:33N 54°38' W 005°26'1010.1
2017-Mar-20 02:33N 54°29' W 005°20'9 9.5
2017-Mar-20 01:33N 54°19' W 005°19'11 9.7
2017-Mar-20 00:27N 54°09' W 005°21'21510.8
2017-Mar-19 04:30N 50°35' W 005°52'1111.8
2017-Mar-19 03:33N 50°23' W 005°53'1311.6
2017-Mar-19 02:27N 50°11' W 005°53'  
Track history (hours):
 
Tides and Currents Weather Stations Pressure Air Temp Water Temp Dewpoint Dewpoint Depression Visibility Wind Speed Wind Dir Waves Ship Positions

Bitflower

Last reported at 2017-Mar-28 23:32 UTC. Time now 2017-Mar-28 23:35 UTC.
Position N 43°32' W 001°35'.

; draft 6.7 m.

Type: Ship. MMSI: 266009000.

Date/timePositionNaut miles runAvg speedWind from/ knotsBaromVisibWave heightAir tempDewpointWater temp
2017-Mar-28 23:32N 43°32' W 001°35'1 0.1
2017-Mar-28 04:33N 43°33' W 001°36'6 6.2
2017-Mar-28 03:33N 43°37' W 001°43'23111.0
2017-Mar-27 06:30N 46°58' W 004°26'9 9.8
2017-Mar-27 05:33N 47°06' W 004°33'1010.1
2017-Mar-27 04:32N 47°15' W 004°40'38 9.4
2017-Mar-27 00:33N 47°47' W 005°08'27 9.0
2017-Mar-26 21:33N 48°10' W 005°30'144 8.3
2017-Mar-26 04:14N 49°57' W 003°02'4411.6
2017-Mar-26 00:26N 50°10' W 001°56'1213.4
2017-Mar-25 23:33N 50°13' W 001°39'5110.2
2017-Mar-25 18:33N 50°27' W 000°22'9 9.3
2017-Mar-25 17:33N 50°29' W 000°08'1010.3
2017-Mar-25 16:33N 50°32' E 000°07'1111.4
2017-Mar-25 15:33N 50°35' E 000°25'1211.9
2017-Mar-25 14:34N 50°40' E 000°42'1212.2
2017-Mar-25 13:34N 50°46' E 000°58'1311.4
2017-Mar-25 12:25N 50°54' E 001°15'910.1
2017-Mar-25 11:33N 50°60' E 001°25'9 9.3
2017-Mar-25 10:34N 51°07' E 001°35'9 9.3
2017-Mar-25 09:33N 51°13' E 001°45'1010.5
2017-Mar-25 08:33N 51°22' E 001°55'1211.7
2017-Mar-25 07:33N 51°31' E 002°06'4212.1
2017-Mar-25 04:06N 52°01' E 002°52'2011.0
2017-Mar-25 02:20N 52°03' E 003°24'810.3
2017-Mar-25 01:32N 52°04' E 003°37'10 9.9
2017-Mar-25 00:33N 52°03' E 003°53'1211.5
2017-Mar-24 23:33N 51°58' E 004°09'6 5.5
2017-Mar-24 22:28N 51°53' E 004°16'0 0.0
2017-Mar-24 21:28N 51°53' E 004°16'0 0.0
2017-Mar-24 20:28N 51°53' E 004°16'0 0.0
2017-Mar-24 18:16N 51°53' E 004°16'0 0.0
2017-Mar-24 17:04N 51°53' E 004°16'0 0.0
2017-Mar-24 16:28N 51°53' E 004°16'0 0.0
2017-Mar-24 14:16N 51°53' E 004°16'0 0.0
2017-Mar-24 13:28N 51°53' E 004°16'0 0.0
2017-Mar-24 11:28N 51°53' E 004°16'0 0.0
2017-Mar-24 09:28N 51°53' E 004°16'0 0.0
2017-Mar-24 08:16N 51°53' E 004°16'0 0.1
2017-Mar-24 07:33N 51°53' E 004°16'4 3.8
2017-Mar-24 06:33N 51°56' E 004°12'10 9.9
2017-Mar-24 05:33N 51°60' E 003°57'9 9.1
2017-Mar-24 04:31N 51°56' E 003°44'0 0.1
2017-Mar-24 03:29N 51°56' E 003°43'0 0.0
2017-Mar-24 02:32N 51°56' E 003°43'0 0.0
2017-Mar-24 01:23N 51°56' E 003°43'0 0.0
2017-Mar-24 00:23N 51°56' E 003°43'0 0.0
2017-Mar-23 23:05N 51°56' E 003°43'0 0.0
2017-Mar-23 22:29N 51°56' E 003°43'1 1.2
2017-Mar-23 21:33N 51°57' E 003°42'1111.2
2017-Mar-23 20:33N 51°55' E 003°24'1312.6
2017-Mar-23 19:32N 51°51' E 003°04'1611.6
2017-Mar-23 18:07N 51°47' E 002°39'710.5
2017-Mar-23 17:29N 51°42' E 002°31'1010.6
2017-Mar-23 16:32N 51°34' E 002°21'1010.6
2017-Mar-23 15:33N 51°26' E 002°10'1010.4
2017-Mar-23 14:33N 51°16' E 002°05'1010.4
2017-Mar-23 13:33N 51°10' E 001°52'1110.9
2017-Mar-23 12:33N 51°02' E 001°39'7010.8
2017-Mar-23 06:06N 50°22' E 000°10'1012.1
2017-Mar-23 05:16N 50°19' W 000°06'3712.6
2017-Mar-23 02:20N 50°09' W 001°02'912.1
2017-Mar-23 01:33N 50°07' W 001°16'1211.5
2017-Mar-23 00:33N 50°04' W 001°33'1111.0
2017-Mar-22 23:33N 50°01' W 001°50'6510.7
2017-Mar-22 17:29N 49°50' W 003°30'26410.1
2017-Mar-21 15:21N 54°05' W 005°21'1013.2
2017-Mar-21 14:33N 54°16' W 005°19'1313.0
2017-Mar-21 13:33N 54°29' W 005°20'1414.2
2017-Mar-21 12:34N 54°42' W 005°28'1312.7
2017-Mar-21 11:33N 54°40' W 005°50'4 0.1
2017-Mar-20 06:05N 54°37' W 005°53'1 2.7
2017-Mar-20 05:33N 54°38' W 005°52'1010.0
2017-Mar-20 04:33N 54°43' W 005°37'8 8.3
2017-Mar-20 03:33N 54°38' W 005°26'1010.1
2017-Mar-20 02:33N 54°29' W 005°20'9 9.5
2017-Mar-20 01:33N 54°19' W 005°19'11 9.7
2017-Mar-20 00:27N 54°09' W 005°21'21510.8
2017-Mar-19 04:30N 50°35' W 005°52'1111.8
2017-Mar-19 03:33N 50°23' W 005°53'1311.6
2017-Mar-19 02:27N 50°11' W 005°53'  

Dump ship's entire track history